sensor_id;sensor_type;location;lat;lon;timestamp;temperature;humidity
49385;DHT22;36795;45.028;38.968;2024-01-15T00:02:13;3.20;92.60
49385;DHT22;36795;45.028;38.968;2024-01-15T00:08:04;3.20;92.60
49385;DHT22;36795;45.028;38.968;2024-01-15T00:10:50;3.20;92.60
49385;DHT22;36795;45.028;38.968;2024-01-15T00:13:36;3.20;92.60
49385;DHT22;36795;45.028;38.968;2024-01-15T00:16:22;3.20;92.50
49385;DHT22;36795;45.028;38.968;2024-01-15T00:19:08;3.20;92.50
49385;DHT22;36795;45.028;38.968;2024-01-15T00:21:54;3.20;92.50
49385;DHT22;36795;45.028;38.968;2024-01-15T00:28:04;3.20;92.60
49385;DHT22;36795;45.028;38.968;2024-01-15T00:30:50;3.40;92.60
49385;DHT22;36795;45.028;38.968;2024-01-15T00:33:36;3.40;92.50
49385;DHT22;36795;45.028;38.968;2024-01-15T00:36:22;3.40;92.50
49385;DHT22;36795;45.028;38.968;2024-01-15T00:39:27;3.40;92.50
49385;DHT22;36795;45.028;38.968;2024-01-15T00:42:13;3.50;92.60
49385;DHT22;36795;45.028;38.968;2024-01-15T00:45:00;3.50;92.70
49385;DHT22;36795;45.028;38.968;2024-01-15T00:47:46;3.60;92.70
49385;DHT22;36795;45.028;38.968;2024-01-15T00:50:32;3.70;92.70
49385;DHT22;36795;45.028;38.968;2024-01-15T00:53:18;3.70;92.70
49385;DHT22;36795;45.028;38.968;2024-01-15T00:56:04;3.80;92.70
49385;DHT22;36795;45.028;38.968;2024-01-15T00:58:50;3.80;92.50
49385;DHT22;36795;45.028;38.968;2024-01-15T01:01:36;3.80;92.40
49385;DHT22;36795;45.028;38.968;2024-01-15T01:04:23;3.80;92.50
49385;DHT22;36795;45.028;38.968;2024-01-15T01:07:10;3.80;92.60
49385;DHT22;36795;45.028;38.968;2024-01-15T01:09:55;3.80;92.60
49385;DHT22;36795;45.028;38.968;2024-01-15T01:13:00;4.00;92.60
49385;DHT22;36795;45.028;38.968;2024-01-15T01:15:46;4.10;92.40
49385;DHT22;36795;45.028;38.968;2024-01-15T01:18:31;4.10;92.30
49385;DHT22;36795;45.028;38.968;2024-01-15T01:21:18;4.10;92.20
49385;DHT22;36795;45.028;38.968;2024-01-15T01:24:03;4.20;92.20
49385;DHT22;36795;45.028;38.968;2024-01-15T01:26:50;4.20;92.10
49385;DHT22;36795;45.028;38.968;2024-01-15T01:29:35;4.20;92.10
49385;DHT22;36795;45.028;38.968;2024-01-15T01:32:22;4.20;92.10
49385;DHT22;36795;45.028;38.968;2024-01-15T01:35:26;4.20;92.10
49385;DHT22;36795;45.028;38.968;2024-01-15T01:38:13;4.20;92.00
49385;DHT22;36795;45.028;38.968;2024-01-15T01:40:59;4.10;92.00
49385;DHT22;36795;45.028;38.968;2024-01-15T01:43:45;4.10;91.90
49385;DHT22;36795;45.028;38.968;2024-01-15T01:46:31;4.10;91.90
49385;DHT22;36795;45.028;38.968;2024-01-15T01:52:22;4.10;91.80
49385;DHT22;36795;45.028;38.968;2024-01-15T01:55:09;4.20;91.60
49385;DHT22;36795;45.028;38.968;2024-01-15T01:57:56;4.20;91.50
49385;DHT22;36795;45.028;38.968;2024-01-15T02:00:43;4.20;91.40
49385;DHT22;36795;45.028;38.968;2024-01-15T02:03:30;4.20;91.30
49385;DHT22;36795;45.028;38.968;2024-01-15T02:06:18;4.20;91.30
49385;DHT22;36795;45.028;38.968;2024-01-15T02:09:04;4.10;91.20
49385;DHT22;36795;45.028;38.968;2024-01-15T02:11:53;4.10;91.20
49385;DHT22;36795;45.028;38.968;2024-01-15T02:14:40;4.10;91.20
49385;DHT22;36795;45.028;38.968;2024-01-15T02:17:25;4.10;91.20
49385;DHT22;36795;45.028;38.968;2024-01-15T02:20:12;4.00;91.20
49385;DHT22;36795;45.028;38.968;2024-01-15T02:26:40;3.90;91.10
49385;DHT22;36795;45.028;38.968;2024-01-15T02:29:25;3.90;91.30
49385;DHT22;36795;45.028;38.968;2024-01-15T02:32:12;3.80;91.30
49385;DHT22;36795;45.028;38.968;2024-01-15T02:34:58;3.80;91.50
49385;DHT22;36795;45.028;38.968;2024-01-15T02:37:44;3.80;91.50
49385;DHT22;36795;45.028;38.968;2024-01-15T02:40:29;3.90;91.40
49385;DHT22;36795;45.028;38.968;2024-01-15T02:43:16;3.90;91.40
49385;DHT22;36795;45.028;38.968;2024-01-15T02:46:04;3.90;91.40
49385;DHT22;36795;45.028;38.968;2024-01-15T02:48:50;4.00;91.30
49385;DHT22;36795;45.028;38.968;2024-01-15T02:51:36;4.00;91.20
49385;DHT22;36795;45.028;38.968;2024-01-15T02:54:22;4.00;91.20
49385;DHT22;36795;45.028;38.968;2024-01-15T02:57:08;4.10;91.20
49385;DHT22;36795;45.028;38.968;2024-01-15T02:59:54;4.10;91.20
49385;DHT22;36795;45.028;38.968;2024-01-15T03:02:40;4.10;91.40
49385;DHT22;36795;45.028;38.968;2024-01-15T03:05:29;4.10;91.10
49385;DHT22;36795;45.028;38.968;2024-01-15T03:08:32;4.10;91.00
49385;DHT22;36795;45.028;38.968;2024-01-15T03:14:26;4.20;91.10
49385;DHT22;36795;45.028;38.968;2024-01-15T03:17:12;4.20;91.10
49385;DHT22;36795;45.028;38.968;2024-01-15T03:19:58;4.20;91.00
49385;DHT22;36795;45.028;38.968;2024-01-15T03:22:45;4.30;90.90
49385;DHT22;36795;45.028;38.968;2024-01-15T03:25:30;4.40;90.80
49385;DHT22;36795;45.028;38.968;2024-01-15T03:28:17;4.40;90.60
49385;DHT22;36795;45.028;38.968;2024-01-15T03:37:30;4.30;90.50
49385;DHT22;36795;45.028;38.968;2024-01-15T03:40:16;4.30;90.70
49385;DHT22;36795;45.028;38.968;2024-01-15T03:43:02;4.30;90.80
49385;DHT22;36795;45.028;38.968;2024-01-15T03:45:48;4.30;90.90
49385;DHT22;36795;45.028;38.968;2024-01-15T03:51:39;4.40;91.40
49385;DHT22;36795;45.028;38.968;2024-01-15T03:54:25;4.40;91.10
49385;DHT22;36795;45.028;38.968;2024-01-15T03:57:12;4.40;91.20
49385;DHT22;36795;45.028;38.968;2024-01-15T03:59:58;4.40;91.20
49385;DHT22;36795;45.028;38.968;2024-01-15T04:02:44;4.40;91.50
49385;DHT22;36795;45.028;38.968;2024-01-15T04:05:30;4.40;91.30
49385;DHT22;36795;45.028;38.968;2024-01-15T04:08:34;4.50;91.30
49385;DHT22;36795;45.028;38.968;2024-01-15T04:11:20;4.40;91.30
49385;DHT22;36795;45.028;38.968;2024-01-15T04:14:25;4.40;91.40
49385;DHT22;36795;45.028;38.968;2024-01-15T04:17:12;4.40;91.50
49385;DHT22;36795;45.028;38.968;2024-01-15T04:19:58;4.40;91.40
49385;DHT22;36795;45.028;38.968;2024-01-15T04:22:44;4.40;91.50
49385;DHT22;36795;45.028;38.968;2024-01-15T04:25:30;4.40;91.60
49385;DHT22;36795;45.028;38.968;2024-01-15T04:28:17;4.40;91.50
49385;DHT22;36795;45.028;38.968;2024-01-15T04:31:02;4.30;91.50
49385;DHT22;36795;45.028;38.968;2024-01-15T04:33:49;4.30;91.50
49385;DHT22;36795;45.028;38.968;2024-01-15T04:36:41;4.30;91.60
49385;DHT22;36795;45.028;38.968;2024-01-15T04:39:27;4.40;91.70
49385;DHT22;36795;45.028;38.968;2024-01-15T04:42:13;4.40;91.70
49385;DHT22;36795;45.028;38.968;2024-01-15T04:44:59;4.50;91.70
49385;DHT22;36795;45.028;38.968;2024-01-15T04:47:45;4.50;91.60
49385;DHT22;36795;45.028;38.968;2024-01-15T04:50:50;4.50;91.60
49385;DHT22;36795;45.028;38.968;2024-01-15T04:53:36;4.50;91.60
49385;DHT22;36795;45.028;38.968;2024-01-15T04:56:23;4.50;91.50
49385;DHT22;36795;45.028;38.968;2024-01-15T04:59:30;4.50;91.60
49385;DHT22;36795;45.028;38.968;2024-01-15T05:02:43;4.60;91.50
49385;DHT22;36795;45.028;38.968;2024-01-15T05:05:29;4.60;91.40
49385;DHT22;36795;45.028;38.968;2024-01-15T05:08:15;4.60;91.40
49385;DHT22;36795;45.028;38.968;2024-01-15T05:11:19;4.70;91.30
49385;DHT22;36795;45.028;38.968;2024-01-15T05:14:09;4.80;91.20
49385;DHT22;36795;45.028;38.968;2024-01-15T05:17:00;4.90;91.00
49385;DHT22;36795;45.028;38.968;2024-01-15T05:19:47;5.00;90.70
49385;DHT22;36795;45.028;38.968;2024-01-15T05:22:33;5.10;90.40
49385;DHT22;36795;45.028;38.968;2024-01-15T05:25:19;5.20;90.20
49385;DHT22;36795;45.028;38.968;2024-01-15T05:28:06;5.20;89.80
49385;DHT22;36795;45.028;38.968;2024-01-15T05:30:52;5.30;89.20
49385;DHT22;36795;45.028;38.968;2024-01-15T05:33:38;5.30;88.90
49385;DHT22;36795;45.028;38.968;2024-01-15T05:39:29;5.30;88.50
49385;DHT22;36795;45.028;38.968;2024-01-15T05:42:15;5.40;88.30
49385;DHT22;36795;45.028;38.968;2024-01-15T05:45:01;5.40;88.10
49385;DHT22;36795;45.028;38.968;2024-01-15T05:47:51;5.40;87.90
49385;DHT22;36795;45.028;38.968;2024-01-15T05:50:38;5.40;87.80
49385;DHT22;36795;45.028;38.968;2024-01-15T05:53:24;5.40;87.80
49385;DHT22;36795;45.028;38.968;2024-01-15T05:56:10;5.40;87.90
49385;DHT22;36795;45.028;38.968;2024-01-15T05:58:57;5.40;87.90
49385;DHT22;36795;45.028;38.968;2024-01-15T06:01:42;5.40;87.90
49385;DHT22;36795;45.028;38.968;2024-01-15T06:04:29;5.50;87.90
49385;DHT22;36795;45.028;38.968;2024-01-15T06:07:15;5.50;87.80
49385;DHT22;36795;45.028;38.968;2024-01-15T06:13:05;5.50;87.50
49385;DHT22;36795;45.028;38.968;2024-01-15T06:16:15;5.50;87.50
49385;DHT22;36795;45.028;38.968;2024-01-15T06:19:06;5.50;87.50
49385;DHT22;36795;45.028;38.968;2024-01-15T06:21:52;5.50;87.50
49385;DHT22;36795;45.028;38.968;2024-01-15T06:24:38;5.40;87.50
49385;DHT22;36795;45.028;38.968;2024-01-15T06:27:24;5.40;87.90
49385;DHT22;36795;45.028;38.968;2024-01-15T06:30:10;5.50;88.20
49385;DHT22;36795;45.028;38.968;2024-01-15T06:33:01;5.50;88.80
49385;DHT22;36795;45.028;38.968;2024-01-15T06:35:50;5.40;89.00
49385;DHT22;36795;45.028;38.968;2024-01-15T06:38:37;5.40;89.60
49385;DHT22;36795;45.028;38.968;2024-01-15T06:41:23;5.30;89.80
49385;DHT22;36795;45.028;38.968;2024-01-15T06:44:11;5.30;90.20
49385;DHT22;36795;45.028;38.968;2024-01-15T06:46:57;5.30;90.30
49385;DHT22;36795;45.028;38.968;2024-01-15T06:49:48;5.30;90.20
49385;DHT22;36795;45.028;38.968;2024-01-15T06:55:40;5.40;90.10
49385;DHT22;36795;45.028;38.968;2024-01-15T06:58:36;5.40;90.00
49385;DHT22;36795;45.028;38.968;2024-01-15T07:01:46;5.40;90.10
49385;DHT22;36795;45.028;38.968;2024-01-15T07:04:33;5.40;90.30
49385;DHT22;36795;45.028;38.968;2024-01-15T07:07:37;5.50;90.00
49385;DHT22;36795;45.028;38.968;2024-01-15T07:10:26;5.60;90.20
49385;DHT22;36795;45.028;38.968;2024-01-15T07:13:12;6.50;89.80
49385;DHT22;36795;45.028;38.968;2024-01-15T07:15:59;7.20;83.90
49385;DHT22;36795;45.028;38.968;2024-01-15T07:18:45;7.40;83.30
49385;DHT22;36795;45.028;38.968;2024-01-15T07:21:32;7.80;80.40
49385;DHT22;36795;45.028;38.968;2024-01-15T07:24:18;7.20;79.90
49385;DHT22;36795;45.028;38.968;2024-01-15T07:27:04;6.60;82.10
49385;DHT22;36795;45.028;38.968;2024-01-15T07:29:51;6.10;84.10
49385;DHT22;36795;45.028;38.968;2024-01-15T07:32:56;5.80;86.10
49385;DHT22;36795;45.028;38.968;2024-01-15T07:35:42;5.60;87.80
49385;DHT22;36795;45.028;38.968;2024-01-15T07:38:27;6.00;90.00
49385;DHT22;36795;45.028;38.968;2024-01-15T07:41:14;7.00;88.70
49385;DHT22;36795;45.028;38.968;2024-01-15T07:44:18;7.90;84.20
49385;DHT22;36795;45.028;38.968;2024-01-15T07:47:05;8.60;82.50
49385;DHT22;36795;45.028;38.968;2024-01-15T07:49:52;9.60;77.20
49385;DHT22;36795;45.028;38.968;2024-01-15T07:52:46;10.10;73.60
49385;DHT22;36795;45.028;38.968;2024-01-15T07:55:32;10.30;72.40
49385;DHT22;36795;45.028;38.968;2024-01-15T07:58:19;11.70;69.70
49385;DHT22;36795;45.028;38.968;2024-01-15T08:01:04;12.70;66.20
49385;DHT22;36795;45.028;38.968;2024-01-15T08:03:52;12.50;63.70
49385;DHT22;36795;45.028;38.968;2024-01-15T08:06:38;11.90;65.60
49385;DHT22;36795;45.028;38.968;2024-01-15T08:09:25;11.60;66.30
49385;DHT22;36795;45.028;38.968;2024-01-15T08:12:11;10.90;66.50
49385;DHT22;36795;45.028;38.968;2024-01-15T08:15:19;9.70;69.00
49385;DHT22;36795;45.028;38.968;2024-01-15T08:18:05;8.70;72.30
49385;DHT22;36795;45.028;38.968;2024-01-15T08:20:52;8.00;74.60
49385;DHT22;36795;45.028;38.968;2024-01-15T08:23:39;7.60;76.80
49385;DHT22;36795;45.028;38.968;2024-01-15T08:26:26;7.30;78.30
49385;DHT22;36795;45.028;38.968;2024-01-15T08:29:12;7.10;79.60
49385;DHT22;36795;45.028;38.968;2024-01-15T08:31:58;6.90;80.90
49385;DHT22;36795;45.028;38.968;2024-01-15T08:34:45;6.80;82.90
49385;DHT22;36795;45.028;38.968;2024-01-15T08:37:49;6.60;84.30
49385;DHT22;36795;45.028;38.968;2024-01-15T08:40:35;6.40;85.60
49385;DHT22;36795;45.028;38.968;2024-01-15T08:43:21;6.30;86.60
49385;DHT22;36795;45.028;38.968;2024-01-15T08:46:06;6.30;87.20
49385;DHT22;36795;45.028;38.968;2024-01-15T08:48:53;6.30;87.90
49385;DHT22;36795;45.028;38.968;2024-01-15T08:51:38;6.40;88.30
49385;DHT22;36795;45.028;38.968;2024-01-15T08:54:25;6.50;88.50
49385;DHT22;36795;45.028;38.968;2024-01-15T08:57:29;6.60;88.80
49385;DHT22;36795;45.028;38.968;2024-01-15T09:00:15;6.70;88.70
49385;DHT22;36795;45.028;38.968;2024-01-15T09:03:02;6.80;88.80
49385;DHT22;36795;45.028;38.968;2024-01-15T09:05:49;7.10;88.70
49385;DHT22;36795;45.028;38.968;2024-01-15T09:08:44;7.30;88.40
49385;DHT22;36795;45.028;38.968;2024-01-15T09:11:32;8.30;89.80
49385;DHT22;36795;45.028;38.968;2024-01-15T09:14:18;10.40;84.30
49385;DHT22;36795;45.028;38.968;2024-01-15T09:17:04;12.30;78.50
49385;DHT22;36795;45.028;38.968;2024-01-15T09:19:50;13.00;71.50
49385;DHT22;36795;45.028;38.968;2024-01-15T09:22:40;12.20;71.50
49385;DHT22;36795;45.028;38.968;2024-01-15T09:25:27;13.50;72.30
49385;DHT22;36795;45.028;38.968;2024-01-15T09:28:14;15.60;65.10
49385;DHT22;36795;45.028;38.968;2024-01-15T09:30:59;15.10;61.30
49385;DHT22;36795;45.028;38.968;2024-01-15T09:33:46;14.40;63.70
49385;DHT22;36795;45.028;38.968;2024-01-15T09:36:39;14.60;62.50
49385;DHT22;36795;45.028;38.968;2024-01-15T09:39:29;14.90;60.60
49385;DHT22;36795;45.028;38.968;2024-01-15T09:42:35;15.50;57.80
49385;DHT22;36795;45.028;38.968;2024-01-15T09:45:42;15.60;57.50
49385;DHT22;36795;45.028;38.968;2024-01-15T09:48:29;14.90;58.50
49385;DHT22;36795;45.028;38.968;2024-01-15T09:51:20;14.80;59.10
49385;DHT22;36795;45.028;38.968;2024-01-15T09:54:25;15.20;58.10
49385;DHT22;36795;45.028;38.968;2024-01-15T09:57:12;15.80;54.90
49385;DHT22;36795;45.028;38.968;2024-01-15T10:00:02;16.00;52.50
49385;DHT22;36795;45.028;38.968;2024-01-15T10:02:52;15.20;51.80
49385;DHT22;36795;45.028;38.968;2024-01-15T10:06:18;14.10;53.70
49385;DHT22;36795;45.028;38.968;2024-01-15T10:09:04;13.00;55.70
49385;DHT22;36795;45.028;38.968;2024-01-15T10:11:51;13.00;56.90
49385;DHT22;36795;45.028;38.968;2024-01-15T10:17:42;14.20;54.10
49385;DHT22;36795;45.028;38.968;2024-01-15T10:23:32;14.40;52.50
49385;DHT22;36795;45.028;38.968;2024-01-15T10:26:24;14.10;52.30
49385;DHT22;36795;45.028;38.968;2024-01-15T10:29:11;13.90;53.80
49385;DHT22;36795;45.028;38.968;2024-01-15T10:31:58;14.10;52.20
49385;DHT22;36795;45.028;38.968;2024-01-15T10:34:44;13.70;52.80
49385;DHT22;36795;45.028;38.968;2024-01-15T10:37:49;13.60;53.30
49385;DHT22;36795;45.028;38.968;2024-01-15T10:40:34;13.80;52.50
49385;DHT22;36795;45.028;38.968;2024-01-15T10:43:23;14.40;51.80
49385;DHT22;36795;45.028;38.968;2024-01-15T10:46:09;14.30;50.70
49385;DHT22;36795;45.028;38.968;2024-01-15T10:48:56;13.40;51.80
49385;DHT22;36795;45.028;38.968;2024-01-15T10:51:42;12.30;54.60
49385;DHT22;36795;45.028;38.968;2024-01-15T10:54:48;11.70;56.30
49385;DHT22;36795;45.028;38.968;2024-01-15T10:57:38;11.10;57.80
49385;DHT22;36795;45.028;38.968;2024-01-15T11:00:24;10.70;59.00
49385;DHT22;36795;45.028;38.968;2024-01-15T11:03:11;10.40;59.80
49385;DHT22;36795;45.028;38.968;2024-01-15T11:06:00;10.30;60.50
49385;DHT22;36795;45.028;38.968;2024-01-15T11:08:50;10.40;60.90
49385;DHT22;36795;45.028;38.968;2024-01-15T11:11:45;10.60;60.70
49385;DHT22;36795;45.028;38.968;2024-01-15T11:14:41;10.60;60.30
49385;DHT22;36795;45.028;38.968;2024-01-15T11:17:59;10.60;60.30
49385;DHT22;36795;45.028;38.968;2024-01-15T11:24:03;10.50;60.20
49385;DHT22;36795;45.028;38.968;2024-01-15T11:26:57;10.40;60.30
49385;DHT22;36795;45.028;38.968;2024-01-15T11:29:45;10.30;60.70
49385;DHT22;36795;45.028;38.968;2024-01-15T11:32:33;10.20;60.80
49385;DHT22;36795;45.028;38.968;2024-01-15T11:35:22;10.20;60.80
49385;DHT22;36795;45.028;38.968;2024-01-15T11:38:09;10.20;61.40
49385;DHT22;36795;45.028;38.968;2024-01-15T11:40:56;10.40;60.40
49385;DHT22;36795;45.028;38.968;2024-01-15T11:43:46;10.60;60.00
49385;DHT22;36795;45.028;38.968;2024-01-15T11:46:36;10.60;59.40
49385;DHT22;36795;45.028;38.968;2024-01-15T11:53:00;10.40;60.00
49385;DHT22;36795;45.028;38.968;2024-01-15T11:55:51;10.60;59.70
49385;DHT22;36795;45.028;38.968;2024-01-15T11:58:37;11.00;58.50
49385;DHT22;36795;45.028;38.968;2024-01-15T12:01:25;11.20;57.40
49385;DHT22;36795;45.028;38.968;2024-01-15T12:04:11;11.30;56.40
49385;DHT22;36795;45.028;38.968;2024-01-15T12:06:59;11.30;57.00
49385;DHT22;36795;45.028;38.968;2024-01-15T12:10:09;11.30;56.50
49385;DHT22;36795;45.028;38.968;2024-01-15T12:13:00;10.90;57.40
49385;DHT22;36795;45.028;38.968;2024-01-15T12:16:05;10.90;57.40
49385;DHT22;36795;45.028;38.968;2024-01-15T12:19:11;10.90;57.20
49385;DHT22;36795;45.028;38.968;2024-01-15T12:22:16;11.50;56.00
49385;DHT22;36795;45.028;38.968;2024-01-15T12:25:04;12.00;53.50
49385;DHT22;36795;45.028;38.968;2024-01-15T12:27:51;12.40;51.70
49385;DHT22;36795;45.028;38.968;2024-01-15T12:30:39;12.80;50.60
49385;DHT22;36795;45.028;38.968;2024-01-15T12:33:25;12.60;50.20
49385;DHT22;36795;45.028;38.968;2024-01-15T12:36:33;11.90;51.40
49385;DHT22;36795;45.028;38.968;2024-01-15T12:39:21;11.30;52.80
49385;DHT22;36795;45.028;38.968;2024-01-15T12:42:08;10.90;53.70
49385;DHT22;36795;45.028;38.968;2024-01-15T12:44:57;10.60;54.70
49385;DHT22;36795;45.028;38.968;2024-01-15T12:47:46;10.40;54.90
49385;DHT22;36795;45.028;38.968;2024-01-15T12:50:33;10.30;55.30
49385;DHT22;36795;45.028;38.968;2024-01-15T12:53:21;10.20;55.60
49385;DHT22;36795;45.028;38.968;2024-01-15T12:56:08;10.00;56.10
49385;DHT22;36795;45.028;38.968;2024-01-15T12:58:54;9.90;56.50
49385;DHT22;36795;45.028;38.968;2024-01-15T13:01:40;9.80;57.00
49385;DHT22;36795;45.028;38.968;2024-01-15T13:04:27;9.70;57.50
49385;DHT22;36795;45.028;38.968;2024-01-15T13:07:13;9.70;57.80
49385;DHT22;36795;45.028;38.968;2024-01-15T13:10:01;9.70;58.10
49385;DHT22;36795;45.028;38.968;2024-01-15T13:12:50;9.60;58.60
49385;DHT22;36795;45.028;38.968;2024-01-15T13:15:37;9.70;58.40
49385;DHT22;36795;45.028;38.968;2024-01-15T13:18:24;9.60;58.60
49385;DHT22;36795;45.028;38.968;2024-01-15T13:21:10;9.50;59.10
49385;DHT22;36795;45.028;38.968;2024-01-15T13:24:15;9.50;59.50
49385;DHT22;36795;45.028;38.968;2024-01-15T13:27:05;9.40;59.90
49385;DHT22;36795;45.028;38.968;2024-01-15T13:29:56;9.40;60.20
49385;DHT22;36795;45.028;38.968;2024-01-15T13:32:42;9.30;60.70
49385;DHT22;36795;45.028;38.968;2024-01-15T13:35:29;9.20;61.00
49385;DHT22;36795;45.028;38.968;2024-01-15T13:38:16;9.20;61.40
49385;DHT22;36795;45.028;38.968;2024-01-15T13:41:06;9.10;61.60
49385;DHT22;36795;45.028;38.968;2024-01-15T13:43:54;9.00;61.70
49385;DHT22;36795;45.028;38.968;2024-01-15T13:46:40;9.00;61.70
49385;DHT22;36795;45.028;38.968;2024-01-15T13:49:29;8.90;61.60
49385;DHT22;36795;45.028;38.968;2024-01-15T13:52:34;8.90;62.10
49385;DHT22;36795;45.028;38.968;2024-01-15T13:55:21;8.70;62.30
49385;DHT22;36795;45.028;38.968;2024-01-15T13:58:08;8.70;62.70
49385;DHT22;36795;45.028;38.968;2024-01-15T14:00:54;8.70;63.00
49385;DHT22;36795;45.028;38.968;2024-01-15T14:03:41;8.60;63.20
49385;DHT22;36795;45.028;38.968;2024-01-15T14:06:26;8.60;63.60
49385;DHT22;36795;45.028;38.968;2024-01-15T14:09:13;8.60;63.90
49385;DHT22;36795;45.028;38.968;2024-01-15T14:12:01;8.50;64.20
49385;DHT22;36795;45.028;38.968;2024-01-15T14:14:48;8.40;64.50
49385;DHT22;36795;45.028;38.968;2024-01-15T14:17:35;8.40;64.80
49385;DHT22;36795;45.028;38.968;2024-01-15T14:20:22;8.30;64.90
49385;DHT22;36795;45.028;38.968;2024-01-15T14:23:08;8.30;65.00
49385;DHT22;36795;45.028;38.968;2024-01-15T14:25:56;8.30;65.40
49385;DHT22;36795;45.028;38.968;2024-01-15T14:28:42;8.20;65.50
49385;DHT22;36795;45.028;38.968;2024-01-15T14:31:48;8.20;65.90
49385;DHT22;36795;45.028;38.968;2024-01-15T14:34:35;8.20;66.10
49385;DHT22;36795;45.028;38.968;2024-01-15T14:37:23;8.20;66.30
49385;DHT22;36795;45.028;38.968;2024-01-15T14:40:10;8.20;66.50
49385;DHT22;36795;45.028;38.968;2024-01-15T14:42:58;8.20;66.70
49385;DHT22;36795;45.028;38.968;2024-01-15T14:45:44;8.20;66.80
49385;DHT22;36795;45.028;38.968;2024-01-15T14:48:49;8.10;67.10
49385;DHT22;36795;45.028;38.968;2024-01-15T14:51:35;8.00;67.20
49385;DHT22;36795;45.028;38.968;2024-01-15T14:54:23;8.00;67.50
49385;DHT22;36795;45.028;38.968;2024-01-15T14:57:10;8.00;67.70
49385;DHT22;36795;45.028;38.968;2024-01-15T14:59:56;7.90;67.80
49385;DHT22;36795;45.028;38.968;2024-01-15T15:02:42;7.80;68.00
49385;DHT22;36795;45.028;38.968;2024-01-15T15:05:29;7.70;68.10
49385;DHT22;36795;45.028;38.968;2024-01-15T15:08:14;7.70;68.20
49385;DHT22;36795;45.028;38.968;2024-01-15T15:11:03;7.70;68.10
49385;DHT22;36795;45.028;38.968;2024-01-15T15:13:49;7.70;68.00
49385;DHT22;36795;45.028;38.968;2024-01-15T15:16:36;7.70;67.80
49385;DHT22;36795;45.028;38.968;2024-01-15T15:19:24;7.80;67.60
49385;DHT22;36795;45.028;38.968;2024-01-15T15:25:15;7.80;67.20
49385;DHT22;36795;45.028;38.968;2024-01-15T15:28:02;7.80;67.20
49385;DHT22;36795;45.028;38.968;2024-01-15T15:30:50;7.80;67.00
49385;DHT22;36795;45.028;38.968;2024-01-15T15:33:54;7.80;66.90
49385;DHT22;36795;45.028;38.968;2024-01-15T15:36:44;7.90;67.10
49385;DHT22;36795;45.028;38.968;2024-01-15T15:39:29;7.80;67.10
49385;DHT22;36795;45.028;38.968;2024-01-15T15:42:22;7.80;67.50
49385;DHT22;36795;45.028;38.968;2024-01-15T15:45:17;7.70;67.60
49385;DHT22;36795;45.028;38.968;2024-01-15T15:48:05;7.80;67.90
49385;DHT22;36795;45.028;38.968;2024-01-15T15:50:51;7.80;68.00
49385;DHT22;36795;45.028;38.968;2024-01-15T15:54:02;7.90;68.00
49385;DHT22;36795;45.028;38.968;2024-01-15T15:56:50;8.00;68.10
49385;DHT22;36795;45.028;38.968;2024-01-15T15:59:37;8.00;68.10
49385;DHT22;36795;45.028;38.968;2024-01-15T16:02:45;8.00;68.10
49385;DHT22;36795;45.028;38.968;2024-01-15T16:05:31;7.90;68.20
49385;DHT22;36795;45.028;38.968;2024-01-15T16:08:17;7.90;68.30
49385;DHT22;36795;45.028;38.968;2024-01-15T16:11:06;7.90;68.20
49385;DHT22;36795;45.028;38.968;2024-01-15T16:13:55;7.90;67.90
49385;DHT22;36795;45.028;38.968;2024-01-15T16:16:42;7.80;67.80
49385;DHT22;36795;45.028;38.968;2024-01-15T16:19:28;7.90;67.80
49385;DHT22;36795;45.028;38.968;2024-01-15T16:22:14;7.90;67.60
49385;DHT22;36795;45.028;38.968;2024-01-15T16:25:00;7.90;67.80
49385;DHT22;36795;45.028;38.968;2024-01-15T16:27:48;7.90;67.10
49385;DHT22;36795;45.028;38.968;2024-01-15T16:30:53;7.90;67.10
49385;DHT22;36795;45.028;38.968;2024-01-15T16:33:40;7.90;67.20
49385;DHT22;36795;45.028;38.968;2024-01-15T16:36:27;7.70;67.40
49385;DHT22;36795;45.028;38.968;2024-01-15T16:39:14;7.70;67.70
49385;DHT22;36795;45.028;38.968;2024-01-15T16:42:00;7.70;67.90
49385;DHT22;36795;45.028;38.968;2024-01-15T16:44:46;7.70;68.00
49385;DHT22;36795;45.028;38.968;2024-01-15T16:47:33;7.60;68.10
49385;DHT22;36795;45.028;38.968;2024-01-15T16:50:19;7.60;68.10
49385;DHT22;36795;45.028;38.968;2024-01-15T16:56:10;7.60;68.30
49385;DHT22;36795;45.028;38.968;2024-01-15T16:58:56;7.60;68.40
49385;DHT22;36795;45.028;38.968;2024-01-15T17:01:42;7.60;68.60
49385;DHT22;36795;45.028;38.968;2024-01-15T17:04:29;7.60;68.80
49385;DHT22;36795;45.028;38.968;2024-01-15T17:07:16;7.60;69.10
49385;DHT22;36795;45.028;38.968;2024-01-15T17:10:03;7.60;69.30
49385;DHT22;36795;45.028;38.968;2024-01-15T17:12:50;7.60;69.50
49385;DHT22;36795;45.028;38.968;2024-01-15T17:18:41;7.70;70.10
49385;DHT22;36795;45.028;38.968;2024-01-15T17:21:28;7.70;70.20
49385;DHT22;36795;45.028;38.968;2024-01-15T17:24:34;7.70;70.40
49385;DHT22;36795;45.028;38.968;2024-01-15T17:27:20;7.70;70.40
49385;DHT22;36795;45.028;38.968;2024-01-15T17:30:07;7.70;70.50
49385;DHT22;36795;45.028;38.968;2024-01-15T17:32:54;7.70;70.80
49385;DHT22;36795;45.028;38.968;2024-01-15T17:35:44;7.60;70.70
49385;DHT22;36795;45.028;38.968;2024-01-15T17:38:35;7.70;70.80
49385;DHT22;36795;45.028;38.968;2024-01-15T17:41:22;7.70;71.20
49385;DHT22;36795;45.028;38.968;2024-01-15T17:44:07;7.70;70.50
49385;DHT22;36795;45.028;38.968;2024-01-15T17:46:54;7.80;70.40
49385;DHT22;36795;45.028;38.968;2024-01-15T17:49:40;7.70;70.30
49385;DHT22;36795;45.028;38.968;2024-01-15T17:52:26;7.70;70.40
49385;DHT22;36795;45.028;38.968;2024-01-15T17:55:13;7.70;70.20
49385;DHT22;36795;45.028;38.968;2024-01-15T17:58:01;7.80;70.20
49385;DHT22;36795;45.028;38.968;2024-01-15T18:00:48;7.70;70.00
49385;DHT22;36795;45.028;38.968;2024-01-15T18:03:35;7.70;70.00
49385;DHT22;36795;45.028;38.968;2024-01-15T18:06:21;7.70;70.00
49385;DHT22;36795;45.028;38.968;2024-01-15T18:09:07;7.60;70.00
49385;DHT22;36795;45.028;38.968;2024-01-15T18:11:54;7.60;70.10
49385;DHT22;36795;45.028;38.968;2024-01-15T18:14:46;7.60;70.20
49385;DHT22;36795;45.028;38.968;2024-01-15T18:17:33;7.60;70.20
49385;DHT22;36795;45.028;38.968;2024-01-15T18:20:39;7.70;70.10
49385;DHT22;36795;45.028;38.968;2024-01-15T18:26:32;7.70;70.00
49385;DHT22;36795;45.028;38.968;2024-01-15T18:29:18;7.70;70.20
49385;DHT22;36795;45.028;38.968;2024-01-15T18:32:06;7.80;70.40
49385;DHT22;36795;45.028;38.968;2024-01-15T18:34:54;7.80;70.50
49385;DHT22;36795;45.028;38.968;2024-01-15T18:37:40;7.80;70.80
49385;DHT22;36795;45.028;38.968;2024-01-15T18:40:26;7.80;71.00
49385;DHT22;36795;45.028;38.968;2024-01-15T18:43:11;7.80;71.00
49385;DHT22;36795;45.028;38.968;2024-01-15T18:46:06;7.80;71.20